sensor_id;sensor_type;location;lat;lon;timestamp;temperature;humidity
21799;DHT22;24973;47.178;15.316;2023-02-15T00:02:22;2.30;99.90
21799;DHT22;24973;47.178;15.316;2023-02-15T00:05:11;0.40;99.90
21799;DHT22;24973;47.178;15.316;2023-02-15T00:08:00;2.30;99.90
21799;DHT22;24973;47.178;15.316;2023-02-15T00:10:49;1.20;99.90
21799;DHT22;24973;47.178;15.316;2023-02-15T00:13:39;1.40;99.90
21799;DHT22;24973;47.178;15.316;2023-02-15T00:16:29;1.00;99.90
21799;DHT22;24973;47.178;15.316;2023-02-15T00:19:19;1.50;99.90
21799;DHT22;24973;47.178;15.316;2023-02-15T00:22:09;0.50;99.90
21799;DHT22;24973;47.178;15.316;2023-02-15T00:24:58;2.40;99.90
21799;DHT22;24973;47.178;15.316;2023-02-15T00:27:46;2.00;99.90
21799;DHT22;24973;47.178;15.316;2023-02-15T00:30:36;2.10;99.90
21799;DHT22;24973;47.178;15.316;2023-02-15T00:33:25;1.80;99.90
21799;DHT22;24973;47.178;15.316;2023-02-15T00:36:14;1.90;99.90
21799;DHT22;24973;47.178;15.316;2023-02-15T00:39:03;1.10;99.90
21799;DHT22;24973;47.178;15.316;2023-02-15T00:41:52;1.30;99.90
21799;DHT22;24973;47.178;15.316;2023-02-15T00:44:41;2.20;99.90
21799;DHT22;24973;47.178;15.316;2023-02-15T00:47:32;0.60;99.90
21799;DHT22;24973;47.178;15.316;2023-02-15T00:50:21;1.70;99.90
21799;DHT22;24973;47.178;15.316;2023-02-15T00:53:10;0.60;99.90
21799;DHT22;24973;47.178;15.316;2023-02-15T00:55:59;1.20;99.90
21799;DHT22;24973;47.178;15.316;2023-02-15T00:58:47;2.30;99.90
21799;DHT22;24973;47.178;15.316;2023-02-15T01:01:36;2.40;99.90
21799;DHT22;24973;47.178;15.316;2023-02-15T01:04:26;1.60;99.90
21799;DHT22;24973;47.178;15.316;2023-02-15T01:07:15;1.50;99.90
21799;DHT22;24973;47.178;15.316;2023-02-15T01:10:05;0.70;99.90
21799;DHT22;24973;47.178;15.316;2023-02-15T01:12:55;0.80;99.90
21799;DHT22;24973;47.178;15.316;2023-02-15T01:15:45;2.30;99.90
21799;DHT22;24973;47.178;15.316;2023-02-15T01:18:34;2.20;99.90
21799;DHT22;24973;47.178;15.316;2023-02-15T01:21:25;0.80;99.90
21799;DHT22;24973;47.178;15.316;2023-02-15T01:24:14;0.90;99.90
21799;DHT22;24973;47.178;15.316;2023-02-15T01:27:03;1.30;99.90
21799;DHT22;24973;47.178;15.316;2023-02-15T01:29:52;1.30;99.90
21799;DHT22;24973;47.178;15.316;2023-02-15T01:32:41;1.00;99.90
21799;DHT22;24973;47.178;15.316;2023-02-15T01:35:31;0.90;99.90
21799;DHT22;24973;47.178;15.316;2023-02-15T01:38:21;2.30;99.90
21799;DHT22;24973;47.178;15.316;2023-02-15T01:41:10;1.20;99.90
21799;DHT22;24973;47.178;15.316;2023-02-15T01:47:40;1.00;99.90
21799;DHT22;24973;47.178;15.316;2023-02-15T01:50:32;1.10;99.90
21799;DHT22;24973;47.178;15.316;2023-02-15T01:53:26;1.40;99.90
21799;DHT22;24973;47.178;15.316;2023-02-15T01:56:19;2.20;99.90
21799;DHT22;24973;47.178;15.316;2023-02-15T01:59:14;1.10;99.90
21799;DHT22;24973;47.178;15.316;2023-02-15T02:02:07;1.10;99.90
21799;DHT22;24973;47.178;15.316;2023-02-15T02:05:00;2.20;99.90
21799;DHT22;24973;47.178;15.316;2023-02-15T02:07:56;2.30;99.90
21799;DHT22;24973;47.178;15.316;2023-02-15T02:10:47;2.60;99.90
21799;DHT22;24973;47.178;15.316;2023-02-15T02:13:36;1.10;99.90
21799;DHT22;24973;47.178;15.316;2023-02-15T02:16:28;1.50;99.90
21799;DHT22;24973;47.178;15.316;2023-02-15T02:19:49;1.30;99.90
21799;DHT22;24973;47.178;15.316;2023-02-15T02:23:10;1.20;99.90
21799;DHT22;24973;47.178;15.316;2023-02-15T02:30:33;1.20;99.90
21799;DHT22;24973;47.178;15.316;2023-02-15T02:36:51;1.20;99.90
21799;DHT22;24973;47.178;15.316;2023-02-15T02:39:49;1.40;99.90
21799;DHT22;24973;47.178;15.316;2023-02-15T02:42:45;2.30;99.90
21799;DHT22;24973;47.178;15.316;2023-02-15T02:45:43;1.20;99.90
21799;DHT22;24973;47.178;15.316;2023-02-15T02:48:35;1.30;99.90
21799;DHT22;24973;47.178;15.316;2023-02-15T02:51:24;1.90;99.90
21799;DHT22;24973;47.178;15.316;2023-02-15T02:54:13;1.30;99.90
21799;DHT22;24973;47.178;15.316;2023-02-15T02:57:04;1.30;99.90
21799;DHT22;24973;47.178;15.316;2023-02-15T02:59:55;2.20;99.90
21799;DHT22;24973;47.178;15.316;2023-02-15T03:02:47;1.80;99.90
21799;DHT22;24973;47.178;15.316;2023-02-15T03:05:43;1.20;99.90
21799;DHT22;24973;47.178;15.316;2023-02-15T03:08:36;1.40;99.90
21799;DHT22;24973;47.178;15.316;2023-02-15T03:11:28;1.30;99.90
21799;DHT22;24973;47.178;15.316;2023-02-15T03:14:18;1.20;99.90
21799;DHT22;24973;47.178;15.316;2023-02-15T03:17:08;1.20;99.90
21799;DHT22;24973;47.178;15.316;2023-02-15T03:20:02;1.20;99.90
21799;DHT22;24973;47.178;15.316;2023-02-15T03:22:56;1.30;99.90
21799;DHT22;24973;47.178;15.316;2023-02-15T03:25:51;1.70;99.90
21799;DHT22;24973;47.178;15.316;2023-02-15T03:28:42;1.40;99.90
21799;DHT22;24973;47.178;15.316;2023-02-15T03:31:37;1.30;99.90
21799;DHT22;24973;47.178;15.316;2023-02-15T03:34:28;2.10;99.90
21799;DHT22;24973;47.178;15.316;2023-02-15T03:37:24;1.30;99.90
21799;DHT22;24973;47.178;15.316;2023-02-15T03:40:19;1.40;99.90
21799;DHT22;24973;47.178;15.316;2023-02-15T03:43:32;1.90;99.90
21799;DHT22;24973;47.178;15.316;2023-02-15T03:46:29;1.30;99.90
21799;DHT22;24973;47.178;15.316;2023-02-15T03:49:24;1.30;99.90
21799;DHT22;24973;47.178;15.316;2023-02-15T03:52:16;1.30;99.90
21799;DHT22;24973;47.178;15.316;2023-02-15T03:55:06;1.30;99.90
21799;DHT22;24973;47.178;15.316;2023-02-15T03:57:56;1.20;99.90
21799;DHT22;24973;47.178;15.316;2023-02-15T04:01:09;1.50;99.90
21799;DHT22;24973;47.178;15.316;2023-02-15T04:04:19;1.30;99.90
21799;DHT22;24973;47.178;15.316;2023-02-15T04:07:11;1.20;99.90
21799;DHT22;24973;47.178;15.316;2023-02-15T04:10:00;1.20;99.90
21799;DHT22;24973;47.178;15.316;2023-02-15T04:13:07;1.10;99.90
21799;DHT22;24973;47.178;15.316;2023-02-15T04:15:56;1.70;99.90
21799;DHT22;24973;47.178;15.316;2023-02-15T04:18:50;1.10;99.90
21799;DHT22;24973;47.178;15.316;2023-02-15T04:21:57;1.10;99.90
21799;DHT22;24973;47.178;15.316;2023-02-15T04:25:03;2.80;99.90
21799;DHT22;24973;47.178;15.316;2023-02-15T04:27:59;1.10;99.90
21799;DHT22;24973;47.178;15.316;2023-02-15T04:30:49;1.90;99.90
21799;DHT22;24973;47.178;15.316;2023-02-15T04:33:38;1.00;99.90
21799;DHT22;24973;47.178;15.316;2023-02-15T04:36:27;1.30;99.90
21799;DHT22;24973;47.178;15.316;2023-02-15T04:39:17;1.50;99.90
21799;DHT22;24973;47.178;15.316;2023-02-15T04:42:06;2.30;99.90
21799;DHT22;24973;47.178;15.316;2023-02-15T04:44:55;1.40;99.90
21799;DHT22;24973;47.178;15.316;2023-02-15T04:47:45;1.00;99.90
21799;DHT22;24973;47.178;15.316;2023-02-15T04:50:34;0.90;99.90
21799;DHT22;24973;47.178;15.316;2023-02-15T04:53:22;1.20;99.90
21799;DHT22;24973;47.178;15.316;2023-02-15T04:56:11;1.00;99.90
21799;DHT22;24973;47.178;15.316;2023-02-15T04:59:00;1.20;99.90
21799;DHT22;24973;47.178;15.316;2023-02-15T05:01:49;1.00;99.90
21799;DHT22;24973;47.178;15.316;2023-02-15T05:04:39;1.00;99.90
21799;DHT22;24973;47.178;15.316;2023-02-15T05:07:28;1.00;99.90
21799;DHT22;24973;47.178;15.316;2023-02-15T05:10:17;1.00;99.90
21799;DHT22;24973;47.178;15.316;2023-02-15T05:13:06;1.00;99.90
21799;DHT22;24973;47.178;15.316;2023-02-15T05:15:54;1.30;99.90
21799;DHT22;24973;47.178;15.316;2023-02-15T05:18:43;1.30;99.90
21799;DHT22;24973;47.178;15.316;2023-02-15T05:21:33;0.80;99.90
21799;DHT22;24973;47.178;15.316;2023-02-15T05:24:22;1.20;99.90
21799;DHT22;24973;47.178;15.316;2023-02-15T05:27:28;1.20;99.90
21799;DHT22;24973;47.178;15.316;2023-02-15T05:30:34;1.10;99.90
21799;DHT22;24973;47.178;15.316;2023-02-15T05:33:23;2.10;99.90
21799;DHT22;24973;47.178;15.316;2023-02-15T05:36:12;1.20;99.90
21799;DHT22;24973;47.178;15.316;2023-02-15T05:39:02;2.20;99.90
21799;DHT22;24973;47.178;15.316;2023-02-15T05:41:53;1.50;99.90
21799;DHT22;24973;47.178;15.316;2023-02-15T05:44:41;0.90;99.90
21799;DHT22;24973;47.178;15.316;2023-02-15T05:47:30;0.20;99.90
21799;DHT22;24973;47.178;15.316;2023-02-15T05:50:19;0.80;99.90
21799;DHT22;24973;47.178;15.316;2023-02-15T05:53:07;2.00;99.90
21799;DHT22;24973;47.178;15.316;2023-02-15T05:55:58;1.10;99.90
21799;DHT22;24973;47.178;15.316;2023-02-15T05:58:47;1.60;99.90
21799;DHT22;24973;47.178;15.316;2023-02-15T06:01:36;1.00;99.90
21799;DHT22;24973;47.178;15.316;2023-02-15T06:04:25;1.60;99.90
21799;DHT22;24973;47.178;15.316;2023-02-15T06:07:14;0.30;99.90
21799;DHT22;24973;47.178;15.316;2023-02-15T06:10:04;1.80;99.90
21799;DHT22;24973;47.178;15.316;2023-02-15T06:12:55;-0.30;99.90
21799;DHT22;24973;47.178;15.316;2023-02-15T06:15:44;0.80;99.90
21799;DHT22;24973;47.178;15.316;2023-02-15T06:18:33;1.20;99.90
21799;DHT22;24973;47.178;15.316;2023-02-15T06:21:22;0.10;99.90
21799;DHT22;24973;47.178;15.316;2023-02-15T06:24:10;1.80;99.90
21799;DHT22;24973;47.178;15.316;2023-02-15T06:26:59;-0.50;99.90
21799;DHT22;24973;47.178;15.316;2023-02-15T06:29:49;0.70;99.90
21799;DHT22;24973;47.178;15.316;2023-02-15T06:32:38;-0.60;99.90
21799;DHT22;24973;47.178;15.316;2023-02-15T06:35:28;-0.60;99.90
21799;DHT22;24973;47.178;15.316;2023-02-15T06:38:17;1.40;99.90
21799;DHT22;24973;47.178;15.316;2023-02-15T06:41:06;-0.60;99.90
21799;DHT22;24973;47.178;15.316;2023-02-15T06:43:54;1.00;99.90
21799;DHT22;24973;47.178;15.316;2023-02-15T06:46:44;-0.60;99.90
21799;DHT22;24973;47.178;15.316;2023-02-15T06:49:33;1.90;99.90
21799;DHT22;24973;47.178;15.316;2023-02-15T06:52:22;1.80;99.90
21799;DHT22;24973;47.178;15.316;2023-02-15T06:55:11;1.30;99.90
21799;DHT22;24973;47.178;15.316;2023-02-15T06:58:00;1.50;99.90
21799;DHT22;24973;47.178;15.316;2023-02-15T07:00:48;1.80;99.90
21799;DHT22;24973;47.178;15.316;2023-02-15T07:03:39;1.40;99.90
21799;DHT22;24973;47.178;15.316;2023-02-15T07:06:31;0.10;99.90
21799;DHT22;24973;47.178;15.316;2023-02-15T07:09:20;0.20;99.90
21799;DHT22;24973;47.178;15.316;2023-02-15T07:12:09;2.00;99.90
21799;DHT22;24973;47.178;15.316;2023-02-15T07:15:17;0.90;99.90
21799;DHT22;24973;47.178;15.316;2023-02-15T07:18:07;2.30;99.90
21799;DHT22;24973;47.178;15.316;2023-02-15T07:20:59;0.70;99.90
21799;DHT22;24973;47.178;15.316;2023-02-15T07:23:47;1.80;99.90
21799;DHT22;24973;47.178;15.316;2023-02-15T07:26:36;1.00;99.90
21799;DHT22;24973;47.178;15.316;2023-02-15T07:29:25;0.80;99.90
21799;DHT22;24973;47.178;15.316;2023-02-15T07:32:14;0.90;99.90
21799;DHT22;24973;47.178;15.316;2023-02-15T07:35:03;0.90;99.90
21799;DHT22;24973;47.178;15.316;2023-02-15T07:37:54;1.00;99.90
21799;DHT22;24973;47.178;15.316;2023-02-15T07:40:42;1.00;99.90
21799;DHT22;24973;47.178;15.316;2023-02-15T07:43:33;2.00;99.90
21799;DHT22;24973;47.178;15.316;2023-02-15T07:46:23;1.30;99.90
21799;DHT22;24973;47.178;15.316;2023-02-15T07:49:12;1.10;99.90
21799;DHT22;24973;47.178;15.316;2023-02-15T07:52:02;1.10;99.90
21799;DHT22;24973;47.178;15.316;2023-02-15T07:54:52;1.80;99.90
21799;DHT22;24973;47.178;15.316;2023-02-15T07:57:42;1.10;99.90
21799;DHT22;24973;47.178;15.316;2023-02-15T08:00:32;1.50;99.90
21799;DHT22;24973;47.178;15.316;2023-02-15T08:03:41;2.20;99.90
21799;DHT22;24973;47.178;15.316;2023-02-15T08:06:31;1.10;99.90
21799;DHT22;24973;47.178;15.316;2023-02-15T08:09:20;1.80;99.90
21799;DHT22;24973;47.178;15.316;2023-02-15T08:12:11;1.10;99.90
21799;DHT22;24973;47.178;15.316;2023-02-15T08:14:59;2.20;99.90
21799;DHT22;24973;47.178;15.316;2023-02-15T08:17:48;1.90;99.90
21799;DHT22;24973;47.178;15.316;2023-02-15T08:20:37;1.90;99.90
21799;DHT22;24973;47.178;15.316;2023-02-15T08:23:26;2.60;99.90
21799;DHT22;24973;47.178;15.316;2023-02-15T08:26:14;1.50;99.90
21799;DHT22;24973;47.178;15.316;2023-02-15T08:29:05;1.70;99.90
21799;DHT22;24973;47.178;15.316;2023-02-15T08:31:57;2.40;99.90
21799;DHT22;24973;47.178;15.316;2023-02-15T08:34:49;2.10;99.90
21799;DHT22;24973;47.178;15.316;2023-02-15T08:37:38;2.80;99.90
21799;DHT22;24973;47.178;15.316;2023-02-15T08:40:27;2.50;99.90
21799;DHT22;24973;47.178;15.316;2023-02-15T08:43:15;2.60;99.90
21799;DHT22;24973;47.178;15.316;2023-02-15T08:46:06;2.80;99.90
21799;DHT22;24973;47.178;15.316;2023-02-15T08:48:56;3.90;99.90
21799;DHT22;24973;47.178;15.316;2023-02-15T08:51:45;3.10;99.90
21799;DHT22;24973;47.178;15.316;2023-02-15T08:54:34;5.40;99.90
21799;DHT22;24973;47.178;15.316;2023-02-15T08:57:23;3.30;99.90
21799;DHT22;24973;47.178;15.316;2023-02-15T09:00:13;3.40;99.90
21799;DHT22;24973;47.178;15.316;2023-02-15T09:03:03;3.50;99.90
21799;DHT22;24973;47.178;15.316;2023-02-15T09:05:57;3.50;99.90
21799;DHT22;24973;47.178;15.316;2023-02-15T09:08:46;3.50;99.90
21799;DHT22;24973;47.178;15.316;2023-02-15T09:11:37;3.50;99.90
21799;DHT22;24973;47.178;15.316;2023-02-15T09:14:27;3.70;99.90
21799;DHT22;24973;47.178;15.316;2023-02-15T09:17:16;3.80;99.90
21799;DHT22;24973;47.178;15.316;2023-02-15T09:20:07;3.90;99.90
21799;DHT22;24973;47.178;15.316;2023-02-15T09:22:56;4.00;99.90
21799;DHT22;24973;47.178;15.316;2023-02-15T09:25:46;4.10;99.90
21799;DHT22;24973;47.178;15.316;2023-02-15T09:28:34;4.30;99.90
21799;DHT22;24973;47.178;15.316;2023-02-15T09:31:26;4.50;99.90
21799;DHT22;24973;47.178;15.316;2023-02-15T09:34:18;4.60;99.90
21799;DHT22;24973;47.178;15.316;2023-02-15T09:37:10;5.60;99.90
21799;DHT22;24973;47.178;15.316;2023-02-15T09:39:58;4.80;99.90
21799;DHT22;24973;47.178;15.316;2023-02-15T09:43:03;5.00;99.90
21799;DHT22;24973;47.178;15.316;2023-02-15T09:46:24;5.20;99.90
21799;DHT22;24973;47.178;15.316;2023-02-15T09:49:25;5.30;99.90
21799;DHT22;24973;47.178;15.316;2023-02-15T09:52:44;5.60;99.90
21799;DHT22;24973;47.178;15.316;2023-02-15T09:55:51;5.80;99.90
21799;DHT22;24973;47.178;15.316;2023-02-15T09:58:52;5.90;99.90
21799;DHT22;24973;47.178;15.316;2023-02-15T10:01:51;6.10;99.90
21799;DHT22;24973;47.178;15.316;2023-02-15T10:04:57;6.30;99.90
21799;DHT22;24973;47.178;15.316;2023-02-15T10:08:19;6.40;99.90
21799;DHT22;24973;47.178;15.316;2023-02-15T10:11:38;6.50;99.90
21799;DHT22;24973;47.178;15.316;2023-02-15T10:14:56;6.80;99.90
21799;DHT22;24973;47.178;15.316;2023-02-15T10:18:09;7.00;99.90
21799;DHT22;24973;47.178;15.316;2023-02-15T10:21:14;7.00;99.90
21799;DHT22;24973;47.178;15.316;2023-02-15T10:24:36;7.10;99.90
21799;DHT22;24973;47.178;15.316;2023-02-15T10:27:39;7.30;99.90
21799;DHT22;24973;47.178;15.316;2023-02-15T10:30:40;7.40;99.90
21799;DHT22;24973;47.178;15.316;2023-02-15T10:33:38;7.40;99.90
21799;DHT22;24973;47.178;15.316;2023-02-15T10:36:39;7.40;99.90
21799;DHT22;24973;47.178;15.316;2023-02-15T10:39:56;7.50;99.90
21799;DHT22;24973;47.178;15.316;2023-02-15T10:43:05;7.70;99.90
21799;DHT22;24973;47.178;15.316;2023-02-15T10:46:07;8.00;99.90
21799;DHT22;24973;47.178;15.316;2023-02-15T10:49:18;8.50;99.90
21799;DHT22;24973;47.178;15.316;2023-02-15T10:52:23;9.20;99.90
21799;DHT22;24973;47.178;15.316;2023-02-15T10:55:24;10.10;99.90
21799;DHT22;24973;47.178;15.316;2023-02-15T10:58:29;10.80;99.80
21799;DHT22;24973;47.178;15.316;2023-02-15T11:01:29;11.50;96.50
21799;DHT22;24973;47.178;15.316;2023-02-15T11:07:51;11.80;93.80
21799;DHT22;24973;47.178;15.316;2023-02-15T11:10:44;12.10;92.10
21799;DHT22;24973;47.178;15.316;2023-02-15T11:13:41;12.10;91.10
21799;DHT22;24973;47.178;15.316;2023-02-15T11:16:36;12.10;90.80
21799;DHT22;24973;47.178;15.316;2023-02-15T11:19:28;12.10;90.30
21799;DHT22;24973;47.178;15.316;2023-02-15T11:22:20;12.20;89.60
21799;DHT22;24973;47.178;15.316;2023-02-15T11:25:17;12.50;89.60
21799;DHT22;24973;47.178;15.316;2023-02-15T11:28:18;12.60;89.40
21799;DHT22;24973;47.178;15.316;2023-02-15T11:31:13;12.80;86.60
21799;DHT22;24973;47.178;15.316;2023-02-15T11:34:13;12.80;87.50
21799;DHT22;24973;47.178;15.316;2023-02-15T11:37:09;12.80;86.10
21799;DHT22;24973;47.178;15.316;2023-02-15T11:40:01;12.80;87.40
21799;DHT22;24973;47.178;15.316;2023-02-15T11:42:53;13.20;85.90
21799;DHT22;24973;47.178;15.316;2023-02-15T11:45:46;13.00;83.20
21799;DHT22;24973;47.178;15.316;2023-02-15T11:48:35;12.80;85.30
21799;DHT22;24973;47.178;15.316;2023-02-15T11:51:24;12.90;84.90
21799;DHT22;24973;47.178;15.316;2023-02-15T11:54:15;13.00;83.80
21799;DHT22;24973;47.178;15.316;2023-02-15T11:57:10;13.20;81.90
21799;DHT22;24973;47.178;15.316;2023-02-15T12:00:09;13.30;82.40
21799;DHT22;24973;47.178;15.316;2023-02-15T12:03:07;13.50;81.20
21799;DHT22;24973;47.178;15.316;2023-02-15T12:06:03;13.70;80.90
21799;DHT22;24973;47.178;15.316;2023-02-15T12:08:59;13.80;80.70
21799;DHT22;24973;47.178;15.316;2023-02-15T12:11:51;14.00;79.80
21799;DHT22;24973;47.178;15.316;2023-02-15T12:14:47;14.30;79.50
21799;DHT22;24973;47.178;15.316;2023-02-15T13:09:45;16.10;68.10
21799;DHT22;24973;47.178;15.316;2023-02-15T13:12:37;16.00;68.40
21799;DHT22;24973;47.178;15.316;2023-02-15T13:15:30;16.00;68.90
21799;DHT22;24973;47.178;15.316;2023-02-15T13:18:30;15.90;68.10
21799;DHT22;24973;47.178;15.316;2023-02-15T13:21:26;16.00;69.50
21799;DHT22;24973;47.178;15.316;2023-02-15T13:24:22;16.30;68.10
21799;DHT22;24973;47.178;15.316;2023-02-15T13:27:14;16.40;67.50
21799;DHT22;24973;47.178;15.316;2023-02-15T13:30:16;16.20;67.60
21799;DHT22;24973;47.178;15.316;2023-02-15T13:33:23;16.30;68.20
21799;DHT22;24973;47.178;15.316;2023-02-15T13:36:21;16.50;67.40
21799;DHT22;24973;47.178;15.316;2023-02-15T13:39:20;16.60;66.20
21799;DHT22;24973;47.178;15.316;2023-02-15T13:42:19;16.70;66.40
21799;DHT22;24973;47.178;15.316;2023-02-15T13:45:24;17.20;66.30
21799;DHT22;24973;47.178;15.316;2023-02-15T13:48:23;17.40;64.30
21799;DHT22;24973;47.178;15.316;2023-02-15T13:51:36;17.40;63.90
21799;DHT22;24973;47.178;15.316;2023-02-15T13:54:42;17.10;63.80
21799;DHT22;24973;47.178;15.316;2023-02-15T13:58:12;16.90;64.10
21799;DHT22;24973;47.178;15.316;2023-02-15T14:01:12;17.20;64.50
21799;DHT22;24973;47.178;15.316;2023-02-15T14:04:40;17.60;63.80
21799;DHT22;24973;47.178;15.316;2023-02-15T14:07:56;18.10;62.40
21799;DHT22;24973;47.178;15.316;2023-02-15T14:10:56;18.50;61.60
21799;DHT22;24973;47.178;15.316;2023-02-15T14:14:20;18.60;60.40
21799;DHT22;24973;47.178;15.316;2023-02-15T14:17:24;18.70;59.90
21799;DHT22;24973;47.178;15.316;2023-02-15T14:20:24;18.70;59.60
21799;DHT22;24973;47.178;15.316;2023-02-15T14:23:29;18.60;59.60
21799;DHT22;24973;47.178;15.316;2023-02-15T14:26:35;18.60;59.50
21799;DHT22;24973;47.178;15.316;2023-02-15T14:29:41;18.60;59.00
21799;DHT22;24973;47.178;15.316;2023-02-15T14:32:39;18.50;59.50
21799;DHT22;24973;47.178;15.316;2023-02-15T14:35:30;18.40;59.60
21799;DHT22;24973;47.178;15.316;2023-02-15T14:38:25;18.20;59.00
21799;DHT22;24973;47.178;15.316;2023-02-15T14:41:27;18.10;59.20
21799;DHT22;24973;47.178;15.316;2023-02-15T14:44:25;17.90;59.70
21799;DHT22;24973;47.178;15.316;2023-02-15T14:47:21;18.00;59.70
21799;DHT22;24973;47.178;15.316;2023-02-15T14:50:42;17.90;59.50
21799;DHT22;24973;47.178;15.316;2023-02-15T14:53:36;17.70;59.80
21799;DHT22;24973;47.178;15.316;2023-02-15T14:56:26;17.60;59.80
21799;DHT22;24973;47.178;15.316;2023-02-15T14:59:20;17.60;59.80
21799;DHT22;24973;47.178;15.316;2023-02-15T15:02:13;17.60;59.80
21799;DHT22;24973;47.178;15.316;2023-02-15T15:05:08;17.60;59.80
21799;DHT22;24973;47.178;15.316;2023-02-15T15:08:01;17.30;59.90
21799;DHT22;24973;47.178;15.316;2023-02-15T15:10:51;17.20;60.20
21799;DHT22;24973;47.178;15.316;2023-02-15T15:14:00;17.00;61.00
21799;DHT22;24973;47.178;15.316;2023-02-15T15:16:51;16.60;61.20
21799;DHT22;24973;47.178;15.316;2023-02-15T15:20:11;16.50;61.60
21799;DHT22;24973;47.178;15.316;2023-02-15T15:23:43;16.40;62.10
21799;DHT22;24973;47.178;15.316;2023-02-15T15:26:32;16.10;62.40
21799;DHT22;24973;47.178;15.316;2023-02-15T15:29:39;15.80;62.90
21799;DHT22;24973;47.178;15.316;2023-02-15T15:32:31;15.20;63.60
21799;DHT22;24973;47.178;15.316;2023-02-15T15:35:27;14.30;65.40
21799;DHT22;24973;47.178;15.316;2023-02-15T15:38:30;13.30;67.70
21799;DHT22;24973;47.178;15.316;2023-02-15T15:41:39;12.40;69.70
21799;DHT22;24973;47.178;15.316;2023-02-15T15:45:00;11.50;72.70
21799;DHT22;24973;47.178;15.316;2023-02-15T15:48:22;10.70;75.50
21799;DHT22;24973;47.178;15.316;2023-02-15T15:51:20;10.10;77.80
21799;DHT22;24973;47.178;15.316;2023-02-15T15:54:15;9.60;79.30
21799;DHT22;24973;47.178;15.316;2023-02-15T15:57:14;9.20;81.50
21799;DHT22;24973;47.178;15.316;2023-02-15T16:00:27;8.80;83.20
21799;DHT22;24973;47.178;15.316;2023-02-15T16:30:25;6.00;93.90
21799;DHT22;24973;47.178;15.316;2023-02-15T16:33:17;5.80;94.60
21799;DHT22;24973;47.178;15.316;2023-02-15T16:36:11;5.60;94.90
21799;DHT22;24973;47.178;15.316;2023-02-15T16:42:15;5.00;97.70
21799;DHT22;24973;47.178;15.316;2023-02-15T16:45:08;6.10;99.70
21799;DHT22;24973;47.178;15.316;2023-02-15T16:48:06;4.60;99.90
21799;DHT22;24973;47.178;15.316;2023-02-15T16:50:59;4.40;99.90
21799;DHT22;24973;47.178;15.316;2023-02-15T16:53:49;4.20;99.90
21799;DHT22;24973;47.178;15.316;2023-02-15T16:56:38;4.10;99.90
21799;DHT22;24973;47.178;15.316;2023-02-15T16:59:34;4.00;99.90
21799;DHT22;24973;47.178;15.316;2023-02-15T17:02:25;3.80;99.90
21799;DHT22;24973;47.178;15.316;2023-02-15T17:05:41;3.70;99.90
21799;DHT22;24973;47.178;15.316;2023-02-15T17:08:34;3.60;99.90
21799;DHT22;24973;47.178;15.316;2023-02-15T17:11:35;3.40;99.90
21799;DHT22;24973;47.178;15.316;2023-02-15T17:14:27;3.30;99.90
21799;DHT22;24973;47.178;15.316;2023-02-15T17:17:17;3.30;99.90
21799;DHT22;24973;47.178;15.316;2023-02-15T17:20:14;3.20;99.90
21799;DHT22;24973;47.178;15.316;2023-02-15T17:23:05;3.10;99.90
21799;DHT22;24973;47.178;15.316;2023-02-15T17:25:55;2.90;99.90
21799;DHT22;24973;47.178;15.316;2023-02-15T17:28:46;2.80;99.90
21799;DHT22;24973;47.178;15.316;2023-02-15T17:31:36;2.70;99.90
21799;DHT22;24973;47.178;15.316;2023-02-15T17:34:47;2.60;99.90
21799;DHT22;24973;47.178;15.316;2023-02-15T17:37:45;2.40;99.90
21799;DHT22;24973;47.178;15.316;2023-02-15T17:40:36;2.30;99.90
21799;DHT22;24973;47.178;15.316;2023-02-15T17:43:25;2.30;99.90
21799;DHT22;24973;47.178;15.316;2023-02-15T17:46:14;2.20;99.90
21799;DHT22;24973;47.178;15.316;2023-02-15T17:49:05;2.10;99.90
21799;DHT22;24973;47.178;15.316;2023-02-15T17:51:54;2.10;99.90
21799;DHT22;24973;47.178;15.316;2023-02-15T17:54:43;1.80;99.90
21799;DHT22;24973;47.178;15.316;2023-02-15T17:57:51;1.60;99.90
21799;DHT22;24973;47.178;15.316;2023-02-15T18:00:42;1.50;99.90
21799;DHT22;24973;47.178;15.316;2023-02-15T18:03:51;2.30;99.90
21799;DHT22;24973;47.178;15.316;2023-02-15T18:06:57;1.30;99.90
21799;DHT22;24973;47.178;15.316;2023-02-15T18:10:12;1.30;99.90
21799;DHT22;24973;47.178;15.316;2023-02-15T18:13:19;1.20;99.90
21799;DHT22;24973;47.178;15.316;2023-02-15T18:16:13;1.50;99.90
21799;DHT22;24973;47.178;15.316;2023-02-15T18:19:03;2.40;99.90
21799;DHT22;24973;47.178;15.316;2023-02-15T18:21:53;1.10;99.90
21799;DHT22;24973;47.178;15.316;2023-02-15T18:24:44;1.10;99.90
21799;DHT22;24973;47.178;15.316;2023-02-15T18:27:33;2.40;99.90
21799;DHT22;24973;47.178;15.316;2023-02-15T18:30:26;2.30;99.90
21799;DHT22;24973;47.178;15.316;2023-02-15T18:33:24;2.00;99.90
21799;DHT22;24973;47.178;15.316;2023-02-15T18:36:22;0.80;99.90
21799;DHT22;24973;47.178;15.316;2023-02-15T18:39:24;1.40;99.90
21799;DHT22;24973;47.178;15.316;2023-02-15T18:42:19;0.90;99.90
21799;DHT22;24973;47.178;15.316;2023-02-15T18:45:13;0.80;99.90
21799;DHT22;24973;47.178;15.316;2023-02-15T18:48:05;0.70;99.90
21799;DHT22;24973;47.178;15.316;2023-02-15T18:50:56;0.50;99.90
21799;DHT22;24973;47.178;15.316;2023-02-15T18:53:46;0.40;99.90
21799;DHT22;24973;47.178;15.316;2023-02-15T18:56:37;0.90;99.90
21799;DHT22;24973;47.178;15.316;2023-02-15T18:59:27;0.40;99.90
21799;DHT22;24973;47.178;15.316;2023-02-15T19:02:17;1.50;99.90
21799;DHT22;24973;47.178;15.316;2023-02-15T19:05:08;-1.10;99.90
21799;DHT22;24973;47.178;15.316;2023-02-15T19:07:58;1.10;99.90
21799;DHT22;24973;47.178;15.316;2023-02-15T19:10:48;0.30;99.90
21799;DHT22;24973;47.178;15.316;2023-02-15T19:13:37;0.40;99.90
21799;DHT22;24973;47.178;15.316;2023-02-15T19:16:29;1.60;99.90
21799;DHT22;24973;47.178;15.316;2023-02-15T19:19:19;0.30;99.90
21799;DHT22;24973;47.178;15.316;2023-02-15T19:22:13;0.30;99.90
21799;DHT22;24973;47.178;15.316;2023-02-15T19:25:04;2.00;99.90
21799;DHT22;24973;47.178;15.316;2023-02-15T19:27:53;0.10;99.90
21799;DHT22;24973;47.178;15.316;2023-02-15T19:30:43;0.60;99.90
21799;DHT22;24973;47.178;15.316;2023-02-15T19:33:32;1.50;99.90
21799;DHT22;24973;47.178;15.316;2023-02-15T19:36:21;1.70;99.90
21799;DHT22;24973;47.178;15.316;2023-02-15T19:39:22;0.90;99.90
21799;DHT22;24973;47.178;15.316;2023-02-15T19:42:13;0.50;99.90
21799;DHT22;24973;47.178;15.316;2023-02-15T19:45:12;0.90;99.90
21799;DHT22;24973;47.178;15.316;2023-02-15T19:48:04;0.00;99.90
21799;DHT22;24973;47.178;15.316;2023-02-15T19:50:53;0.00;99.90
21799;DHT22;24973;47.178;15.316;2023-02-15T19:53:44;1.60;99.90
21799;DHT22;24973;47.178;15.316;2023-02-15T19:56:36;0.00;99.90
21799;DHT22;24973;47.178;15.316;2023-02-15T19:59:26;0.00;99.90